Wetterdaten: Dezember 2014
Datum Temp Feuchte Luftdruck Regen Wind Richtung Sonnenschein UV Solar Windben
01.12.2014 -0,5 C 90 % 1012,7 hPa 0,0 l/m 1,9 km/h N-NO 0,00 h 0,6 UV-I 64 W/m 13,7 km/h
02.12.2014 -1,2 C 89 % 1015,9 hPa 0,0 l/m 0,4 km/h N-NO 0,75 h 0,5 UV-I 59 W/m 4,0 km/h
03.12.2014 -2,6 C 94 % 1021,4 hPa 0,0 l/m 0,8 km/h N-NO 0,00 h 0,5 UV-I 31 W/m 6,0 km/h
04.12.2014 -0,1 C 95 % 1017,1 hPa 0,0 l/m 0,2 km/h NO 0,00 h 0,0 UV-I 32 W/m 2,8 km/h
05.12.2014 1,5 C 95 % 1018,3 hPa 0,2 l/m 0,1 km/h S-SW 0,00 h 0,0 UV-I 26 W/m 1,6 km/h
06.12.2014 3,3 C 96 % 1023,5 hPa 0,4 l/m 0,3 km/h W-NW 0,00 h 0,0 UV-I 27 W/m 2,0 km/h
07.12.2014 3,8 C 89 % 1017,0 hPa 4,0 l/m 7,2 km/h S 2,00 h 0,6 UV-I 94 W/m 22,1 km/h
08.12.2014 2,0 C 89 % 1017,1 hPa 0,4 l/m 1,2 km/h S-SW 0,42 h 0,5 UV-I 62 W/m 6,8 km/h
09.12.2014 1,0 C 90 % 1026,1 hPa 0,4 l/m 2,4 km/h S 1,08 h 0,5 UV-I 70 W/m 6,4 km/h
10.12.2014 3,1 C 90 % 1014,2 hPa 7,6 l/m 10,2 km/h S 0,00 h 0,0 UV-I 18 W/m 21,3 km/h
11.12.2014 3,7 C 89 % 1007,1 hPa 2,4 l/m 13,0 km/h SW 0,00 h 0,0 UV-I 33 W/m 33,0 km/h
12.12.2014 6,6 C 88 % 998,5 hPa 14,8 l/m 22,9 km/h S 0,00 h 0,0 UV-I 30 W/m 42,7 km/h
13.12.2014 3,6 C 86 % 1010,8 hPa 0,6 l/m 0,6 km/h SW 0,08 h 0,5 UV-I 58 W/m 4,0 km/h
14.12.2014 1,0 C 87 % 1015,6 hPa 0,0 l/m 4,3 km/h S 3,00 h 0,5 UV-I 107 W/m 7,3 km/h
15.12.2014 2,2 C 93 % 1013,1 hPa 3,0 l/m 2,7 km/h S 0,00 h 0,0 UV-I 17 W/m 6,8 km/h
16.12.2014 3,5 C 93 % 1011,4 hPa 1,8 l/m 3,3 km/h SW 0,08 h 0,0 UV-I 33 W/m 12,5 km/h
17.12.2014 5,1 C 96 % 1005,9 hPa 11,2 l/m 6,0 km/h S 0,00 h 0,0 UV-I 24 W/m 14,9 km/h
18.12.2014 9,9 C 96 % 1009,3 hPa 8,2 l/m 7,4 km/h S-SW 0,00 h 0,0 UV-I 22 W/m 22,9 km/h
19.12.2014 7,0 C 90 % 1011,5 hPa 14,6 l/m 14,3 km/h S-SW 0,00 h 0,0 UV-I 15 W/m 31,8 km/h
20.12.2014 3,7 C 91 % 1018,4 hPa 1,6 l/m 6,9 km/h SW 0,00 h 0,0 UV-I 16 W/m 22,1 km/h
21.12.2014 5,4 C 93 % 1023,4 hPa 3,0 l/m 8,6 km/h SW 0,00 h 0,0 UV-I 24 W/m 33,0 km/h
22.12.2014 8,7 C 95 % 1015,3 hPa 5,0 l/m 15,3 km/h SW 0,00 h 0,0 UV-I 14 W/m 39,0 km/h
23.12.2014 8,8 C 90 % 1015,3 hPa 3,2 l/m 11,0 km/h SW 0,00 h 0,0 UV-I 20 W/m 34,2 km/h
24.12.2014 6,1 C 91 % 1013,9 hPa 13,4 l/m 10,3 km/h S-SW 0,00 h 0,0 UV-I 14 W/m 31,4 km/h
25.12.2014 2,7 C 91 % 1021,9 hPa 3,4 l/m 5,6 km/h W 0,25 h 0,0 UV-I 27 W/m 21,3 km/h
26.12.2014 -0,4 C 96 % 1025,2 hPa 2,2 l/m 0,0 km/h NW 0,08 h 0,0 UV-I 27 W/m 0,8 km/h
27.12.2014 -2,0 C 85 % 1005,3 hPa 0,0 l/m 12,3 km/h SO 0,00 h 0,5 UV-I 64 W/m 27,3 km/h
28.12.2014 -3,8 C 88 % 1027,2 hPa 0,0 l/m 0,8 km/h N-NO 3,08 h 0,6 UV-I 102 W/m 3,6 km/h
29.12.2014 -2,0 C 94 % 1032,3 hPa 1,8 l/m 3,1 km/h N-NW 0,00 h 0,0 UV-I 21 W/m 5,6 km/h
30.12.2014 1,0 C 96 % 1033,0 hPa 3,4 l/m 2,9 km/h NW 0,00 h 0,0 UV-I 31 W/m 10,5 km/h
31.12.2014 2,3 C 98 % 1033,9 hPa 3,2 l/m 1,2 km/h W 0,00 h 0,0 UV-I 31 W/m 12,4 km/h
Min-Datum 28.12.14 27.12.14 12.12.14 24 Tage 01.12.14 - - - - 01.12.14
Min-Zeit 08:30 17:40 18:00 - 00:05 - - - - 00:05
Minimum -6,9 C 70 % 995,0 hPa - 0,0 km/h - - - - 0,0 km/h
Max-Datum 18.12.14 03.12.14 29.12.14 12.12.14 12.12.14 - 28.12.14 07.12.14 14.12.14 12.12.14
Max-Zeit 18:50 17:15 21:00 21:00 12:20 - 13:25 12:05 13:00 12:20
Maximum 11,1 C 100 % 1036,0 hPa 14,8 l/m 39,0 km/h
S
- 3,00 h 0,7 UV-I 290 W/m 61,2 km/h
S
Durchschnitt 2,7 C 92 % 1017,1 hPa #109,8 l/m 5,7 km/h S-SW #10:50 h 0,5 UV-I 39 W/m 16,3 km/h

Durchschnitt Minimum Temp.0,7 C
Durchschnitt Maximum Temp.4,3 C